Time;durP1;ratioP1;P1;durP2;ratioP2;P2;SDS_P1;SDS_P2;PMS_P1;PMS_P2;Temp;Humidity;BMP_temperature;BMP_pressure;BME280_temperature;BME280_humidity;BME280_pressure;Samples;Min_cycle;Max_cycle;Signal;HPM_P1;HPM_P2
2023/01/18 00:00:15;;;;;;;0.80;0.80;;;;;;;22.83;37.75;96558.21;1876324;75;28222;-54
2023/01/18 00:03:04;;;;;;;0.70;0.70;;;;;;;22.81;37.82;96551.42;1879951;75;28208;-49
2023/01/18 00:05:54;;;;;;;0.70;0.70;;;;;;;22.82;37.77;96559.34;1861365;75;28717;-49
2023/01/18 00:08:42;;;;;;;0.70;0.70;;;;;;;22.84;37.72;96555.73;1858763;75;28323;-48
2023/01/18 00:11:31;;;;;;;0.90;0.90;;;;;;;22.86;37.73;96545.29;1862641;75;28122;-48
2023/01/18 00:14:19;;;;;;;0.70;0.70;;;;;;;22.86;37.72;96545.29;1875310;74;28202;-49
2023/01/18 00:17:08;;;;;;;0.70;0.70;;;;;;;22.86;37.66;96545.29;1849539;76;28230;-49
2023/01/18 00:19:56;;;;;;;0.90;0.72;;;;;;;22.85;37.66;96549.13;1860920;76;28215;-49
2023/01/18 00:22:45;;;;;;;0.80;0.80;;;;;;;22.89;37.61;96552.89;1829628;75;28116;-52
2023/01/18 00:25:34;;;;;;;0.80;0.80;;;;;;;22.88;37.57;96549.08;1850592;76;28260;-48
2023/01/18 00:28:23;;;;;;;1.30;0.75;;;;;;;22.91;37.52;96552.03;1862708;75;28260;-50
2023/01/18 00:31:17;;;;;;;0.78;0.68;;;;;;;22.91;37.50;96560.23;1855742;75;28397;-50
2023/01/18 00:34:06;;;;;;;0.70;0.70;;;;;;;22.92;37.52;96556.95;1863318;76;28057;-51
2023/01/18 00:36:54;;;;;;;0.70;0.70;;;;;;;22.89;37.50;96562.48;1853080;76;28268;-49
2023/01/18 00:39:42;;;;;;;0.60;0.60;;;;;;;22.82;37.54;96552.50;1833543;76;28134;-47
2023/01/18 00:45:39;;;;;;;0.50;0.50;;;;;;;22.90;37.57;96559.97;1858102;75;28619;-49
2023/01/18 00:48:27;;;;;;;1.02;0.70;;;;;;;22.87;37.60;96561.16;1849136;76;28220;-53
2023/01/18 00:51:19;;;;;;;0.80;0.80;;;;;;;22.87;37.58;96554.31;1838064;77;28171;-53
2023/01/18 00:54:07;;;;;;;0.70;0.70;;;;;;;22.88;37.58;96562.21;1872382;75;28202;-49
2023/01/18 00:56:55;;;;;;;0.80;0.80;;;;;;;22.91;37.56;96564.89;1852974;76;28183;-50
2023/01/18 00:59:45;;;;;;;0.80;0.80;;;;;;;22.92;37.44;96565.16;1857666;76;28183;-51
2023/01/18 01:02:37;;;;;;;0.70;0.70;;;;;;;22.94;37.45;96567.03;1869029;76;28286;-48
2023/01/18 01:08:32;;;;;;;0.70;0.70;;;;;;;22.95;37.47;96576.84;1848648;76;28228;-47
2023/01/18 01:11:20;;;;;;;0.72;0.72;;;;;;;22.90;37.51;96576.95;1825968;78;29026;-48
2023/01/18 01:26:35;;;;;;;0.85;0.80;;;;;;;22.86;37.60;96588.27;1842198;77;28223;-49
2023/01/18 01:29:24;;;;;;;0.80;0.80;;;;;;;22.87;37.58;96581.10;1868260;75;28270;-51
2023/01/18 01:32:12;;;;;;;0.60;0.60;;;;;;;22.86;37.56;96589.08;1872073;76;27980;-52
2023/01/18 01:35:00;;;;;;;1.30;0.60;;;;;;;22.88;37.51;96586.84;1849638;76;28077;-53
2023/01/18 01:37:48;;;;;;;0.50;0.50;;;;;;;22.89;37.54;96590.40;1856784;77;38554;-52
2023/01/18 01:40:36;;;;;;;0.75;0.75;;;;;;;22.89;37.48;96585.73;1863505;76;28214;-50
2023/01/18 01:43:45;;;;;;;0.63;0.63;;;;;;;22.92;37.51;96594.69;1855839;74;28190;-53
2023/01/18 01:46:48;;;;;;;1.67;0.80;;;;;;;22.93;37.47;96596.88;1824132;77;28366;-48
2023/01/18 01:49:40;;;;;;;0.62;0.62;;;;;;;22.88;37.48;96598.34;1839221;77;28219;-50
2023/01/18 01:52:32;;;;;;;1.15;0.70;;;;;;;22.87;37.55;96603.58;1855417;76;28191;-50
2023/01/18 01:55:26;;;;;;;1.70;0.80;;;;;;;22.87;37.51;96604.38;1868875;75;28738;-51
2023/01/18 01:58:21;;;;;;;0.55;0.55;;;;;;;22.89;37.49;96614.48;1868466;76;28239;-52
2023/01/18 02:01:09;;;;;;;0.60;0.60;;;;;;;22.89;37.48;96614.48;1853755;75;28277;-47
2023/01/18 02:04:01;;;;;;;0.60;0.60;;;;;;;22.89;37.49;96617.22;1867644;76;28273;-50
2023/01/18 02:06:50;;;;;;;0.70;0.70;;;;;;;22.90;37.46;96613.34;1852345;76;28289;-50
2023/01/18 02:09:39;;;;;;;0.60;0.60;;;;;;;22.90;37.46;96630.32;1856523;76;28222;-49
2023/01/18 02:12:29;;;;;;;0.60;0.60;;;;;;;22.89;37.47;96625.98;1858375;75;31145;-51
2023/01/18 02:15:18;;;;;;;0.70;0.70;;;;;;;22.90;37.49;96624.30;1873894;74;28139;-49
2023/01/18 02:18:27;;;;;;;0.60;0.60;;;;;;;22.95;37.39;96632.95;1866515;76;28191;-49
2023/01/18 02:21:21;;;;;;;0.60;0.60;;;;;;;22.93;37.45;96644.22;1867407;76;28158;-47
2023/01/18 02:24:31;;;;;;;0.70;0.70;;;;;;;22.88;37.49;96648.98;1857355;74;28178;-52
2023/01/18 02:27:27;;;;;;;1.30;0.73;;;;;;;22.90;37.41;96654.95;1862918;76;28179;-51
2023/01/18 02:30:24;;;;;;;0.60;0.60;;;;;;;22.88;37.51;96653.09;1865207;76;28265;-51
2023/01/18 02:33:34;;;;;;;0.65;0.50;;;;;;;22.86;37.54;96667.09;1860594;74;28237;-48
2023/01/18 02:36:27;;;;;;;0.53;0.53;;;;;;;22.87;37.54;96660.48;1868814;75;28278;-50
2023/01/18 02:39:22;;;;;;;0.60;0.53;;;;;;;22.85;37.55;96655.09;1874318;74;28085;-49
2023/01/18 02:48:31;;;;;;;0.70;0.70;;;;;;;22.88;37.52;96665.41;1805114;78;28791;-50
2023/01/18 02:51:19;;;;;;;0.50;0.50;;;;;;;22.85;37.52;96662.71;1802099;78;28358;-52
2023/01/18 02:54:11;;;;;;;0.50;0.50;;;;;;;22.87;37.50;96667.91;1817786;78;28336;-49
2023/01/18 02:57:01;;;;;;;0.70;0.60;;;;;;;22.91;37.48;96668.91;1832614;77;33192;-49
2023/01/18 02:59:53;;;;;;;0.68;0.68;;;;;;;22.93;37.44;96671.59;1826686;77;28257;-51
2023/01/18 03:02:43;;;;;;;0.70;0.70;;;;;;;22.91;37.39;96676.57;1788973;79;28319;-50
2023/01/18 03:05:35;;;;;;;0.65;0.55;;;;;;;22.92;37.36;96674.65;1792172;78;28367;-48
2023/01/18 03:08:26;;;;;;;0.90;0.70;;;;;;;22.88;37.41;96673.61;1807877;77;28328;-52
2023/01/18 03:11:18;;;;;;;0.68;0.68;;;;;;;22.87;37.46;96675.53;1814449;78;28297;-53
2023/01/18 03:14:13;;;;;;;0.60;0.60;;;;;;;22.92;37.37;96679.54;1819980;78;28294;-48
2023/01/18 03:17:13;;;;;;;0.65;0.65;;;;;;;22.88;37.42;96674.98;1794715;77;28274;-50
2023/01/18 03:20:10;;;;;;;0.60;0.60;;;;;;;22.91;37.42;96676.57;1865490;76;28232;-50
2023/01/18 03:23:37;;;;;;;0.57;0.57;;;;;;;22.90;37.46;96680.41;1843674;76;28140;-47
2023/01/18 03:26:33;;;;;;;0.50;0.50;;;;;;;22.91;37.39;96678.48;1870530;75;28271;-50
2023/01/18 03:35:33;;;;;;;0.60;0.60;;;;;;;22.84;37.47;96675.34;1836738;76;28243;-51
2023/01/18 03:38:22;;;;;;;0.50;0.50;;;;;;;22.83;37.48;96674.53;1854553;76;28119;-48
2023/01/18 03:41:13;;;;;;;0.62;0.62;;;;;;;22.93;37.41;96684.47;1819521;77;28229;-47
2023/01/18 03:44:04;;;;;;;0.60;0.60;;;;;;;22.91;37.34;96677.94;1819499;77;28261;-51
2023/01/18 03:46:52;;;;;;;0.70;0.70;;;;;;;22.90;37.41;96682.33;1846141;76;28290;-48
2023/01/18 03:49:41;;;;;;;0.50;0.50;;;;;;;22.90;37.38;96683.14;1862882;75;28139;-54
2023/01/18 03:52:32;;;;;;;0.33;0.33;;;;;;;22.89;37.37;96676.62;1860493;75;28286;-49
2023/01/18 03:55:29;;;;;;;0.60;0.50;;;;;;;22.89;37.37;96676.06;1852023;75;29103;-48
2023/01/18 03:58:23;;;;;;;0.40;0.40;;;;;;;22.92;37.37;96680.13;1886961;75;28115;-48
2023/01/18 04:01:12;;;;;;;0.60;0.50;;;;;;;22.90;37.34;96680.41;1865008;75;30028;-49
2023/01/18 04:04:00;;;;;;;0.50;0.50;;;;;;;22.89;37.35;96680.72;1858414;75;28130;-49
2023/01/18 04:06:48;;;;;;;0.40;0.40;;;;;;;22.89;37.33;96684.28;1876781;75;28294;-48
2023/01/18 04:09:37;;;;;;;0.70;0.60;;;;;;;22.92;37.26;96683.65;1794802;77;28297;-48
2023/01/18 04:12:26;;;;;;;0.50;0.50;;;;;;;22.91;37.27;96683.97;1864876;75;31042;-51
2023/01/18 04:15:14;;;;;;;0.42;0.42;;;;;;;22.92;37.26;96692.44;1868007;76;28272;-48
2023/01/18 04:18:03;;;;;;;0.62;0.62;;;;;;;22.91;37.28;96698.47;1860253;76;28293;-47
2023/01/18 04:20:55;;;;;;;0.50;0.50;;;;;;;22.92;37.23;96702.02;1871225;75;28205;-48
2023/01/18 04:23:42;;;;;;;0.50;0.42;;;;;;;22.93;37.23;96701.70;1853254;76;28219;-51
2023/01/18 04:26:30;;;;;;;0.60;0.60;;;;;;;22.90;37.25;96692.72;1887482;75;28090;-52
2023/01/18 04:29:18;;;;;;;0.50;0.50;;;;;;;22.92;37.26;96702.81;1861279;75;28211;-49
2023/01/18 04:32:06;;;;;;;0.62;0.62;;;;;;;22.91;37.29;96703.94;1836165;76;28283;-50
2023/01/18 04:34:54;;;;;;;0.40;0.40;;;;;;;22.92;37.22;96703.39;1867822;76;37342;-51
2023/01/18 04:37:43;;;;;;;0.50;0.50;;;;;;;22.91;37.22;96703.94;1839626;76;28161;-50
2023/01/18 04:40:32;;;;;;;0.47;0.47;;;;;;;22.94;37.21;96708.78;1864460;76;28032;-50
2023/01/18 04:43:20;;;;;;;0.60;0.60;;;;;;;22.92;37.17;96699.28;1868178;76;28235;-49
2023/01/18 04:46:09;;;;;;;1.65;0.50;;;;;;;22.92;37.20;96697.92;1863976;76;28141;-51
2023/01/18 04:48:57;;;;;;;0.37;0.37;;;;;;;22.93;37.21;96696.78;1817309;76;28332;-52
2023/01/18 04:51:47;;;;;;;0.50;0.50;;;;;;;22.90;37.18;96702.31;1826158;76;28293;-50
2023/01/18 04:54:35;;;;;;;0.50;0.50;;;;;;;22.90;37.18;96705.05;1813868;77;28294;-52
2023/01/18 04:57:24;;;;;;;0.50;0.50;;;;;;;22.90;37.18;96703.67;1858727;74;38584;-51
2023/01/18 05:00:14;;;;;;;0.60;0.50;;;;;;;22.90;37.17;96698.75;1846970;75;28308;-50
2023/01/18 05:03:02;;;;;;;0.50;0.50;;;;;;;22.91;37.14;96708.05;1867738;76;28275;-49
2023/01/18 05:05:51;;;;;;;0.40;0.40;;;;;;;22.88;37.19;96711.38;1869371;75;28261;-49
2023/01/18 05:08:40;;;;;;;0.62;0.62;;;;;;;22.86;37.21;96706.77;1873690;75;28285;-49
2023/01/18 05:11:29;;;;;;;0.50;0.50;;;;;;;22.86;37.19;96710.88;1872146;74;28211;-53
2023/01/18 05:14:17;;;;;;;0.40;0.40;;;;;;;22.85;37.27;96718.03;1851606;75;28206;-50
2023/01/18 05:17:06;;;;;;;0.57;0.57;;;;;;;22.85;37.25;96713.34;1875921;74;28302;-48
2023/01/18 05:19:55;;;;;;;0.57;0.57;;;;;;;22.85;37.28;96711.19;1880224;75;28095;-49
2023/01/18 05:22:43;;;;;;;0.40;0.40;;;;;;;22.84;37.28;96716.40;1881938;75;28169;-48
2023/01/18 05:25:32;;;;;;;0.42;0.42;;;;;;;22.84;37.27;96716.40;1875580;76;28278;-50
2023/01/18 05:28:21;;;;;;;0.40;0.40;;;;;;;22.87;37.26;96724.02;1851531;75;28362;-49
2023/01/18 05:31:10;;;;;;;0.57;0.57;;;;;;;22.84;37.26;96724.06;1888743;75;28242;-51
2023/01/18 05:33:58;;;;;;;0.35;0.35;;;;;;;22.85;37.26;96737.19;1854667;74;28336;-50
2023/01/18 05:36:48;;;;;;;0.45;0.45;;;;;;;22.85;37.26;96739.93;1827993;77;28245;-48
2023/01/18 05:39:36;;;;;;;0.45;0.45;;;;;;;22.86;37.21;96741.53;1870887;75;28317;-48
2023/01/18 05:42:25;;;;;;;0.50;0.50;;;;;;;22.84;37.26;96744.59;1876807;75;28204;-52
2023/01/18 05:45:13;;;;;;;0.40;0.40;;;;;;;22.87;37.23;96739.06;1864268;75;28246;-50
2023/01/18 05:48:02;;;;;;;0.55;0.55;;;;;;;22.87;37.23;96740.44;1851376;76;28250;-53
2023/01/18 05:50:52;;;;;;;0.50;0.50;;;;;;;22.88;37.21;96744.78;1871109;76;28310;-49
2023/01/18 05:53:41;;;;;;;0.50;0.50;;;;;;;22.87;37.24;96747.28;1875345;74;28219;-50
2023/01/18 05:56:29;;;;;;;0.50;0.50;;;;;;;22.83;37.18;96733.38;1880537;75;28091;-52
2023/01/18 05:59:18;;;;;;;0.40;0.40;;;;;;;22.89;37.15;96749.97;1849937;76;28262;-49
2023/01/18 06:02:06;;;;;;;0.40;0.40;;;;;;;22.88;37.14;96755.18;1880716;74;28142;-49
2023/01/18 06:04:55;;;;;;;0.87;0.50;;;;;;;22.83;37.19;96760.74;1882593;75;28233;-49
2023/01/18 06:07:43;;;;;;;0.70;0.50;;;;;;;22.86;37.20;96762.06;1881306;76;28214;-47
2023/01/18 06:10:31;;;;;;;0.70;0.50;;;;;;;22.87;37.20;96767.23;1884552;75;28082;-49
2023/01/18 06:13:21;;;;;;;0.40;0.40;;;;;;;22.82;36.98;96774.73;1886361;75;28127;-49
2023/01/18 06:16:10;;;;;;;0.68;0.60;;;;;;;22.80;37.00;96776.39;1829306;76;28255;-48
2023/01/18 06:18:59;;;;;;;0.60;0.60;;;;;;;22.81;36.79;96788.97;1869246;76;28827;-53
2023/01/18 06:21:48;;;;;;;0.62;0.62;;;;;;;22.77;35.41;96779.75;1867923;76;28103;-50
2023/01/18 06:24:36;;;;;;;0.70;0.53;;;;;;;22.93;35.18;96785.20;1846090;76;28173;-49
2023/01/18 06:27:25;;;;;;;0.60;0.60;;;;;;;22.97;34.95;96782.10;1833507;74;28395;-51
2023/01/18 06:30:14;;;;;;;0.70;0.70;;;;;;;23.01;34.93;96791.33;1863306;75;28254;-50
2023/01/18 06:33:05;;;;;;;0.55;0.55;;;;;;;23.03;34.83;96788.30;1861148;74;28178;-52
2023/01/18 06:35:53;;;;;;;0.57;0.57;;;;;;;23.05;34.82;96795.11;1871751;75;38780;-49
2023/01/18 06:38:41;;;;;;;0.50;0.50;;;;;;;23.02;34.80;96792.96;1830021;76;28365;-49
2023/01/18 06:41:29;;;;;;;0.65;0.65;;;;;;;22.95;34.76;96781.59;1859567;75;28190;-48
2023/01/18 06:44:18;;;;;;;0.55;0.55;;;;;;;23.02;34.80;96805.28;1879884;75;28201;-50
2023/01/18 06:47:06;;;;;;;0.68;0.68;;;;;;;23.02;34.84;96806.66;1885956;74;28202;-49
2023/01/18 06:49:55;;;;;;;0.50;0.50;;;;;;;22.95;34.79;96799.39;1840396;77;28381;-49
2023/01/18 06:52:44;;;;;;;0.50;0.50;;;;;;;22.98;34.86;96819.33;1852568;76;28211;-54
2023/01/18 06:55:33;;;;;;;0.47;0.47;;;;;;;22.99;34.90;96815.46;1862193;76;28216;-48
2023/01/18 06:58:24;;;;;;;0.80;0.60;;;;;;;22.98;34.91;96815.22;1868516;75;28205;-52
2023/01/18 07:01:12;;;;;;;0.97;0.50;;;;;;;22.99;34.99;96827.78;1873963;75;28467;-49
2023/01/18 07:04:00;;;;;;;0.60;0.60;;;;;;;22.97;35.11;96828.64;1854105;76;28158;-50
2023/01/18 07:06:49;;;;;;;0.68;0.68;;;;;;;22.97;35.21;96831.37;1850327;75;28198;-49
2023/01/18 07:09:37;;;;;;;0.90;0.60;;;;;;;22.95;35.27;96831.42;1880369;74;28096;-49
2023/01/18 07:12:26;;;;;;;1.85;0.70;;;;;;;22.94;35.68;96836.66;1860066;76;28351;-51
2023/01/18 07:15:15;;;;;;;0.83;0.60;;;;;;;22.96;36.12;96841.27;1870658;75;28526;-50
2023/01/18 07:18:04;;;;;;;0.60;0.60;;;;;;;22.91;36.27;96843.55;1863357;76;28258;-51
2023/01/18 07:21:00;;;;;;;2.60;0.78;;;;;;;22.92;36.54;96855.31;1861173;76;28869;-49
2023/01/18 07:23:49;;;;;;;0.60;0.60;;;;;;;22.96;36.49;96857.70;1856747;76;28179;-51
2023/01/18 07:26:37;;;;;;;0.70;0.70;;;;;;;22.94;36.69;96861.30;1869476;76;28263;-52
2023/01/18 07:29:26;;;;;;;0.90;0.53;;;;;;;22.90;36.77;96867.91;1860349;76;28201;-51
2023/01/18 07:32:15;;;;;;;0.50;0.50;;;;;;;22.92;36.83;96875.84;1892980;74;28056;-53
2023/01/18 07:35:05;;;;;;;0.93;0.70;;;;;;;22.91;36.87;96864.62;1847897;76;28298;-49
2023/01/18 07:37:53;;;;;;;0.53;0.53;;;;;;;22.90;37.28;96865.17;1858334;74;28102;-50
2023/01/18 07:40:41;;;;;;;0.70;0.70;;;;;;;22.90;37.28;96865.17;1872265;74;28308;-53
2023/01/18 07:43:32;;;;;;;0.70;0.60;;;;;;;22.91;36.89;96873.66;1891786;74;28103;-51
2023/01/18 07:46:21;;;;;;;0.80;0.70;;;;;;;22.91;36.91;96885.97;1852669;76;28206;-50
2023/01/18 07:49:09;;;;;;;0.80;0.70;;;;;;;22.93;36.93;96891.14;1858750;74;28073;-49
2023/01/18 07:51:58;;;;;;;0.70;0.50;;;;;;;22.91;36.94;96892.00;1850518;76;28303;-48
2023/01/18 07:54:46;;;;;;;1.07;0.50;;;;;;;22.91;36.92;96894.19;1855602;76;28283;-52
2023/01/18 07:57:35;;;;;;;0.70;0.60;;;;;;;22.91;36.97;96896.92;1816205;77;28289;-52
2023/01/18 08:00:24;;;;;;;1.55;0.60;;;;;;;22.82;36.98;96890.51;1824738;77;28375;-52
2023/01/18 08:03:15;;;;;;;0.57;0.57;;;;;;;22.91;37.00;96907.05;1820793;78;28322;-49
2023/01/18 08:06:06;;;;;;;0.50;0.50;;;;;;;22.86;37.02;96909.32;1795092;78;28347;-51
2023/01/18 08:08:55;;;;;;;0.72;0.70;;;;;;;22.87;37.01;96908.19;1790745;78;28422;-54
2023/01/18 08:11:43;;;;;;;0.60;0.60;;;;;;;22.87;37.04;96916.98;1815425;77;28323;-49
2023/01/18 08:14:32;;;;;;;0.50;0.50;;;;;;;22.86;37.06;96920.82;1849959;76;28282;-54
2023/01/18 08:17:20;;;;;;;0.60;0.60;;;;;;;22.84;37.05;96915.66;1788726;79;28407;-52
2023/01/18 08:20:11;;;;;;;0.50;0.50;;;;;;;22.84;37.00;96914.28;1845626;76;28226;-50
2023/01/18 08:23:01;;;;;;;0.60;0.60;;;;;;;22.84;37.05;96925.23;1818218;77;30320;-49
2023/01/18 08:25:50;;;;;;;0.62;0.62;;;;;;;22.85;37.00;96925.47;1813786;77;28337;-49
2023/01/18 08:28:40;;;;;;;0.57;0.57;;;;;;;22.82;37.06;96930.20;1806666;79;28451;-50
2023/01/18 08:31:28;;;;;;;0.60;0.60;;;;;;;22.84;37.03;96938.92;1812077;78;28220;-53
2023/01/18 08:34:16;;;;;;;0.60;0.60;;;;;;;22.85;36.98;96952.84;1824361;77;28387;-50
2023/01/18 08:37:05;;;;;;;1.60;0.80;;;;;;;22.85;36.98;96962.42;1812299;78;28190;-48
2023/01/18 08:39:53;;;;;;;0.50;0.50;;;;;;;22.84;36.96;96965.47;1793276;78;28369;-52
2023/01/18 08:42:41;;;;;;;0.60;0.60;;;;;;;22.84;36.99;96966.29;1790435;78;28402;-53
2023/01/18 08:45:30;;;;;;;0.70;0.70;;;;;;;22.83;36.99;96967.94;1791390;77;28391;-53
2023/01/18 08:48:19;;;;;;;0.70;0.70;;;;;;;22.82;36.97;96971.25;1871939;76;28188;-51
2023/01/18 08:51:07;;;;;;;0.70;0.70;;;;;;;22.83;36.98;96974.23;1791343;78;28421;-48
2023/01/18 08:53:57;;;;;;;0.62;0.62;;;;;;;22.83;36.97;96977.52;1847055;76;28254;-50
2023/01/18 08:56:45;;;;;;;0.60;0.60;;;;;;;22.84;36.95;96979.98;1807015;77;28296;-49
2023/01/18 08:59:34;;;;;;;2.00;0.70;;;;;;;22.84;36.94;96984.08;1812323;77;28273;-50
2023/01/18 09:02:23;;;;;;;0.50;0.50;;;;;;;22.83;36.96;96987.91;1841461;76;30212;-49
2023/01/18 09:05:12;;;;;;;0.50;0.50;;;;;;;22.81;36.99;96987.41;1861205;76;28348;-51
2023/01/18 09:08:00;;;;;;;1.25;0.70;;;;;;;22.82;36.93;96993.14;1861086;76;28203;-50
2023/01/18 09:10:49;;;;;;;0.50;0.40;;;;;;;22.82;36.96;96997.25;1857084;76;28225;-51
2023/01/18 09:13:40;;;;;;;0.82;0.70;;;;;;;22.80;36.95;97006.29;1861338;76;28393;-53
2023/01/18 09:16:29;;;;;;;0.50;0.50;;;;;;;22.81;36.98;97007.11;1861069;76;28179;-50
2023/01/18 09:19:18;;;;;;;0.60;0.60;;;;;;;22.81;36.92;97007.93;1821962;77;28316;-55
2023/01/18 09:22:06;;;;;;;0.70;0.70;;;;;;;22.81;36.94;97017.51;1788322;79;28470;-50
2023/01/18 09:24:55;;;;;;;0.80;0.80;;;;;;;22.80;36.90;97017.81;1892144;75;28180;-53
2023/01/18 09:27:45;;;;;;;0.42;0.42;;;;;;;22.80;36.94;97028.19;1859437;76;28310;-53
2023/01/18 09:30:34;;;;;;;0.62;0.62;;;;;;;22.81;36.89;97022.98;1867087;75;28122;-50
2023/01/18 09:33:23;;;;;;;0.70;0.70;;;;;;;22.80;36.90;97030.92;1837515;77;28257;-53
2023/01/18 09:36:13;;;;;;;0.90;0.70;;;;;;;22.80;36.91;97037.77;1848186;75;28103;-51
2023/01/18 09:39:02;;;;;;;0.50;0.50;;;;;;;22.79;36.90;97041.63;1837885;77;28218;-51
2023/01/18 09:41:53;;;;;;;0.60;0.60;;;;;;;22.79;36.91;97045.73;1864761;75;28072;-49
2023/01/18 09:44:44;;;;;;;1.40;0.62;;;;;;;22.80;36.90;97043.23;1837820;77;28375;-51
2023/01/18 09:47:38;;;;;;;0.60;0.60;;;;;;;22.78;36.89;97052.30;1858703;76;28328;-49
2023/01/18 09:50:27;;;;;;;0.60;0.60;;;;;;;22.76;36.93;97060.00;1841176;75;28288;-49
2023/01/18 09:53:24;;;;;;;0.62;0.62;;;;;;;22.76;36.92;97062.73;1889900;75;28369;-53
2023/01/18 09:56:15;;;;;;;1.42;0.60;;;;;;;22.75;36.91;97066.59;1880479;75;28060;-52
2023/01/18 09:59:07;;;;;;;0.60;0.60;;;;;;;22.74;36.89;97073.16;1860506;75;28287;-52
2023/01/18 10:01:56;;;;;;;0.50;0.50;;;;;;;22.76;36.83;97078.34;1862878;76;28488;-52
2023/01/18 10:04:48;;;;;;;0.60;0.60;;;;;;;22.75;36.89;97080.28;1869051;76;28165;-51
2023/01/18 10:07:44;;;;;;;0.90;0.90;;;;;;;22.74;36.84;97081.37;1853601;76;28753;-51
2023/01/18 10:10:32;;;;;;;0.70;0.50;;;;;;;22.73;36.82;97093.45;1824651;78;28339;-52
2023/01/18 10:13:42;;;;;;;0.50;0.50;;;;;;;22.74;36.82;97103.81;1859767;75;28220;-50
2023/01/18 10:16:32;;;;;;;0.65;0.65;;;;;;;22.72;36.81;97119.17;1850730;75;28167;-51
2023/01/18 10:19:24;;;;;;;0.75;0.75;;;;;;;22.67;36.87;97129.63;1876750;75;28215;-50
2023/01/18 10:22:37;;;;;;;0.60;0.60;;;;;;;22.66;36.89;97127.98;1837633;77;31331;-49
2023/01/18 10:25:40;;;;;;;0.42;0.42;;;;;;;22.69;36.83;97134.80;1837538;77;36204;-53
2023/01/18 10:28:50;;;;;;;0.60;0.60;;;;;;;22.66;36.88;97139.51;1858579;75;28303;-51
2023/01/18 10:31:56;;;;;;;0.55;0.55;;;;;;;22.64;36.91;97147.98;1856094;75;28096;-52
2023/01/18 10:34:47;;;;;;;0.50;0.50;;;;;;;22.61;36.93;97155.41;1876308;75;28111;-50
2023/01/18 10:37:42;;;;;;;0.60;0.60;;;;;;;22.58;36.98;97153.23;1876056;75;28168;-51
2023/01/18 10:40:28;;;;;;;0.60;0.60;;;;;;;22.59;36.94;97156.80;1876423;75;28235;-53
2023/01/18 10:43:19;;;;;;;0.60;0.60;;;;;;;22.63;36.92;97164.71;1879466;75;28228;-50
2023/01/18 10:46:18;;;;;;;0.50;0.50;;;;;;;22.64;36.86;97169.06;1848127;76;28302;-48
2023/01/18 10:49:08;;;;;;;0.50;0.50;;;;;;;22.65;36.85;97177.00;1873881;75;28204;-55
2023/01/18 10:51:56;;;;;;;0.40;0.40;;;;;;;22.64;36.82;97174.53;1875451;75;28280;-50
2023/01/18 10:54:57;;;;;;;0.42;0.42;;;;;;;22.64;36.81;97181.37;1880378;75;28068;-50
2023/01/18 10:57:48;;;;;;;0.50;0.50;;;;;;;22.64;36.81;97184.11;1851373;76;30059;-51
2023/01/18 11:00:37;;;;;;;0.40;0.40;;;;;;;22.62;36.85;97180.85;1868856;76;28214;-51
2023/01/18 11:03:27;;;;;;;0.42;0.42;;;;;;;22.65;36.79;97188.48;1865158;76;28177;-50
2023/01/18 11:06:19;;;;;;;0.47;0.47;;;;;;;22.63;36.80;97185.23;1857455;76;28652;-52
2023/01/18 11:09:09;;;;;;;0.85;0.55;;;;;;;22.65;36.77;97192.05;1868980;76;28614;-51
2023/01/18 11:12:51;;;;;;;0.50;0.50;;;;;;;22.66;36.75;97194.23;1875799;75;28130;-52
2023/01/18 11:15:14;;;;;;;1.45;0.60;;;;;;;22.65;36.71;97185.20;1853865;75;28251;-51
2023/01/18 11:18:05;;;;;;;0.70;0.70;;;;;;;22.63;36.75;97193.44;1882910;75;28187;-54
2023/01/18 11:20:54;;;;;;;0.87;0.70;;;;;;;22.59;36.80;97189.63;1883004;75;28068;-49
2023/01/18 11:23:43;;;;;;;0.50;0.50;;;;;;;22.62;36.76;97201.38;1880387;75;28174;-49
2023/01/18 11:26:32;;;;;;;0.50;0.50;;;;;;;22.61;36.71;97207.39;1872400;76;28116;-48
2023/01/18 11:29:24;;;;;;;0.50;0.50;;;;;;;22.61;36.76;97211.50;1838243;77;28309;-50
2023/01/18 11:32:25;;;;;;;0.70;0.70;;;;;;;22.61;36.72;97213.45;1839299;77;28199;-51
2023/01/18 11:35:16;;;;;;;0.90;0.50;;;;;;;22.57;36.71;97218.63;1849507;76;28291;-47
2023/01/18 11:38:07;;;;;;;0.50;0.50;;;;;;;22.58;36.76;97216.72;1856292;76;28418;-52
2023/01/18 11:41:05;;;;;;;0.70;0.70;;;;;;;22.58;36.72;97219.45;1855489;76;28211;-49
2023/01/18 11:43:59;;;;;;;0.60;0.60;;;;;;;22.57;36.75;97213.70;1856820;76;27996;-48
2023/01/18 11:46:53;;;;;;;0.50;0.50;;;;;;;22.55;36.72;97220.02;1871036;76;28031;-52
2023/01/18 11:50:02;;;;;;;1.30;0.80;;;;;;;22.53;36.77;97219.50;1847607;76;28190;-49
2023/01/18 11:53:16;;;;;;;0.60;0.60;;;;;;;22.55;36.65;97218.66;1834869;77;28202;-49
2023/01/18 11:56:17;;;;;;;0.50;0.50;;;;;;;22.52;36.72;97216.52;1846332;76;28182;-49
2023/01/18 11:59:23;;;;;;;0.50;0.50;;;;;;;22.46;36.75;97225.86;1850425;75;28159;-49
2023/01/18 12:02:31;;;;;;;0.50;0.50;;;;;;;22.45;36.76;97222.88;1877182;75;28064;-50
2023/01/18 12:05:44;;;;;;;0.60;0.60;;;;;;;22.44;36.75;97223.97;1877374;75;33042;-51
2023/01/18 12:08:55;;;;;;;0.98;0.62;;;;;;;22.40;36.77;97222.92;1873343;75;28193;-48
2023/01/18 12:12:08;;;;;;;0.70;0.70;;;;;;;22.40;36.74;97242.89;1867090;75;28321;-50
2023/01/18 12:15:12;;;;;;;0.60;0.60;;;;;;;22.39;36.64;97252.19;1873243;75;28131;-49
2023/01/18 12:18:07;;;;;;;0.57;0.57;;;;;;;22.36;36.66;97262.87;1846069;75;28287;-48
2023/01/18 12:20:58;;;;;;;0.60;0.60;;;;;;;22.35;36.58;97261.25;1878949;75;28251;-51
2023/01/18 12:24:06;;;;;;;0.40;0.40;;;;;;;22.39;36.53;97274.07;1843352;77;28311;-48
2023/01/18 12:27:00;;;;;;;0.53;0.53;;;;;;;22.40;36.47;97270.25;1864264;76;28194;-53
2023/01/18 12:30:18;;;;;;;0.70;0.70;;;;;;;22.37;36.42;97277.65;1842570;76;28175;-52
2023/01/18 12:33:10;;;;;;;0.55;0.55;;;;;;;22.38;36.30;97294.30;1885809;75;28259;-52
2023/01/18 12:36:13;;;;;;;0.60;0.60;;;;;;;22.32;36.45;97294.64;1847785;76;28233;-48
2023/01/18 12:39:04;;;;;;;0.50;0.50;;;;;;;22.33;36.38;97312.70;1872979;76;28061;-53
2023/01/18 12:42:02;;;;;;;0.60;0.60;;;;;;;22.32;36.39;97298.20;1863692;76;28173;-53
2023/01/18 12:45:22;;;;;;;0.60;0.60;;;;;;;22.32;36.36;97311.88;1839554;77;28273;-51
2023/01/18 12:48:17;;;;;;;0.70;0.70;;;;;;;22.33;36.32;97315.44;1842421;77;28314;-52
2023/01/18 12:51:08;;;;;;;0.50;0.50;;;;;;;22.25;36.16;97322.31;1844134;76;28203;-51
2023/01/18 12:54:16;;;;;;;0.70;0.70;;;;;;;22.26;36.17;97327.25;1864807;76;28184;-53
2023/01/18 12:57:05;;;;;;;0.60;0.60;;;;;;;22.24;36.17;97322.61;1872544;75;28145;-48
2023/01/18 13:00:04;;;;;;;0.50;0.50;;;;;;;22.24;36.20;97337.66;1871782;75;28052;-48
2023/01/18 13:02:57;;;;;;;1.05;0.53;;;;;;;22.30;36.06;97353.73;1960190;72;27936;-48
2023/01/18 13:05:54;;;;;;;0.50;0.50;;;;;;;22.27;35.93;97356.20;1914292;73;28059;-52
2023/01/18 13:08:44;;;;;;;0.70;0.57;;;;;;;22.26;35.89;97360.06;1905621;73;28111;-51
2023/01/18 13:11:35;;;;;;;0.50;0.50;;;;;;;22.27;35.80;97371.25;1838135;76;28789;-49
2023/01/18 13:14:32;;;;;;;0.60;0.60;;;;;;;22.23;35.80;97373.75;1915915;73;28168;-50
2023/01/18 13:17:29;;;;;;;0.40;0.40;;;;;;;22.21;35.85;97393.73;1902056;75;28451;-49
2023/01/18 13:20:29;;;;;;;0.33;0.33;;;;;;;22.15;35.70;97382.53;1901996;75;28075;-50
2023/01/18 13:23:32;;;;;;;0.60;0.60;;;;;;;22.21;35.70;97400.56;1924139;73;28051;-48
2023/01/18 13:26:34;;;;;;;0.50;0.50;;;;;;;22.19;35.69;97406.05;1923935;73;28183;-49
2023/01/18 13:29:28;;;;;;;0.50;0.50;;;;;;;22.20;35.61;97410.41;1902156;75;28087;-48
2023/01/18 13:32:31;;;;;;;0.55;0.55;;;;;;;22.17;35.64;97407.67;1901941;75;28015;-49
2023/01/18 13:35:34;;;;;;;0.50;0.50;;;;;;;22.14;35.65;97410.17;1920195;73;30929;-49
2023/01/18 13:38:26;;;;;;;0.50;0.50;;;;;;;22.13;35.66;97405.79;1920254;73;28069;-50
2023/01/18 13:41:17;;;;;;;0.60;0.60;;;;;;;22.12;35.61;97413.74;1911779;73;27982;-48
2023/01/18 13:44:08;;;;;;;0.50;0.50;;;;;;;22.14;35.54;97421.11;1931128;73;28038;-51
2023/01/18 13:46:59;;;;;;;0.55;0.55;;;;;;;22.14;35.46;97427.95;1902198;75;28171;-48
2023/01/18 13:49:48;;;;;;;0.57;0.57;;;;;;;22.15;35.37;97434.49;1917605;73;27986;-51
2023/01/18 13:52:41;;;;;;;0.53;0.53;;;;;;;22.15;35.31;97448.16;1931390;73;28057;-49
2023/01/18 13:55:32;;;;;;;0.37;0.37;;;;;;;22.16;35.29;97440.78;1922467;73;28177;-51
2023/01/18 13:58:37;;;;;;;0.47;0.47;;;;;;;22.15;35.22;97454.20;1902058;75;28561;-50
2023/01/18 14:01:31;;;;;;;0.50;0.50;;;;;;;22.14;35.24;97462.13;1920764;73;28048;-49